Time,TemperatureF,DewpointF,PressureIn,WindDirection,WindDirectionDegrees,WindSpeedMPH,WindSpeedGustMPH,Humidity,HourlyPrecipIn,Conditions,Clouds,dailyrainin,SolarRadiationWatts/m^2,SoftwareType,DateUTC
2013-03-30 00:00:00,40.9,34.6,30.22,SSE,161,0.0,0.0,78,0.00,,,0.00,0,Wunderground v.1.15,2013-03-30 05:00:00,
2013-03-30 00:09:00,40.4,34.7,30.22,SSE,162,1.0,1.0,80,0.00,,,0.00,0,Wunderground v.1.15,2013-03-30 05:09:00,
2013-03-30 00:14:00,40.4,35.0,30.22,SSE,162,1.0,1.0,81,0.00,,,0.00,0,Wunderground v.1.15,2013-03-30 05:14:00,
2013-03-30 00:19:00,40.3,34.9,30.22,SSE,162,0.0,0.0,81,0.00,,,0.00,0,Wunderground v.1.15,2013-03-30 05:19:00,
2013-03-30 00:25:00,40.3,35.2,30.22,SSE,162,0.0,0.0,82,0.00,,,0.00,0,Wunderground v.1.15,2013-03-30 05:25:00,
2013-03-30 00:30:00,40.3,35.2,30.22,SSE,162,0.0,1.0,82,0.00,,,0.00,0,Wunderground v.1.15,2013-03-30 05:30:00,
2013-03-30 00:35:00,40.2,35.1,30.21,SSE,162,1.0,1.0,82,0.00,,,0.00,0,Wunderground v.1.15,2013-03-30 05:35:00,
2013-03-30 00:40:00,40.2,34.8,30.21,SSE,162,1.0,1.0,81,0.00,,,0.00,0,Wunderground v.1.15,2013-03-30 05:40:00,
2013-03-30 00:45:00,40.1,35.0,30.21,SSE,162,1.0,2.0,82,0.00,,,0.00,0,Wunderground v.1.15,2013-03-30 05:45:00,
2013-03-30 00:50:00,39.9,34.9,30.21,SSE,162,1.0,1.0,82,0.00,,,0.00,0,Wunderground v.1.15,2013-03-30 05:50:00,
2013-03-30 01:00:00,39.6,34.9,30.21,SSE,162,1.0,1.0,83,0.00,,,0.00,0,Wunderground v.1.15,2013-03-30 06:00:00,
2013-03-30 01:10:00,39.4,34.7,30.22,SSE,162,0.0,0.0,83,0.00,,,0.00,0,Wunderground v.1.15,2013-03-30 06:10:00,
2013-03-30 01:15:00,39.3,34.6,30.22,SSE,162,0.0,0.0,83,0.00,,,0.00,0,Wunderground v.1.15,2013-03-30 06:15:00,
2013-03-30 01:20:00,39.3,34.9,30.22,SSE,162,0.0,0.0,84,0.00,,,0.00,0,Wunderground v.1.15,2013-03-30 06:20:00,
2013-03-30 01:25:00,39.5,35.1,30.22,SSE,162,0.0,1.0,84,0.00,,,0.00,0,Wunderground v.1.15,2013-03-30 06:25:00,
2013-03-30 01:34:00,39.4,34.7,30.22,SSE,162,0.0,2.0,83,0.00,,,0.00,0,Wunderground v.1.15,2013-03-30 06:34:00,
2013-03-30 01:39:00,39.4,35.0,30.21,SSE,162,1.0,1.0,84,0.00,,,0.00,0,Wunderground v.1.15,2013-03-30 06:39:00,
2013-03-30 01:44:00,39.4,34.7,30.20,SSE,162,2.0,2.0,83,0.00,,,0.00,0,Wunderground v.1.15,2013-03-30 06:44:00,
2013-03-30 01:49:00,39.1,34.1,30.20,SSE,162,2.0,2.0,82,0.00,,,0.00,0,Wunderground v.1.15,2013-03-30 06:49:00,
2013-03-30 01:54:00,38.8,34.1,30.20,SSE,162,1.0,2.0,83,0.00,,,0.00,0,Wunderground v.1.15,2013-03-30 06:54:00,
2013-03-30 02:00:00,38.5,33.8,30.20,SSE,162,1.0,2.0,83,0.00,,,0.00,0,Wunderground v.1.15,2013-03-30 07:00:00,
2013-03-30 02:10:00,37.9,33.5,30.19,SSE,162,1.0,1.0,84,0.00,,,0.00,0,Wunderground v.1.15,2013-03-30 07:10:00,
2013-03-30 02:15:00,37.7,33.3,30.19,SSE,161,1.0,2.0,84,0.00,,,0.00,0,Wunderground v.1.15,2013-03-30 07:15:00,
2013-03-30 02:20:00,37.3,32.9,30.19,SSE,162,1.0,2.0,84,0.00,,,0.00,0,Wunderground v.1.15,2013-03-30 07:20:00,
2013-03-30 02:25:00,36.7,32.3,30.19,SSE,162,2.0,2.0,84,0.00,,,0.00,0,Wunderground v.1.15,2013-03-30 07:25:00,
2013-03-30 02:30:00,36.1,31.7,30.18,SSE,162,2.0,2.0,84,0.00,,,0.00,0,Wunderground v.1.15,2013-03-30 07:30:00,
2013-03-30 02:40:00,35.2,31.4,30.18,SSE,162,2.0,2.0,86,0.00,,,0.00,0,Wunderground v.1.15,2013-03-30 07:40:00,
2013-03-30 02:45:00,35.1,31.6,30.18,SSE,162,2.0,2.0,87,0.00,,,0.00,0,Wunderground v.1.15,2013-03-30 07:45:00,
2013-03-30 02:50:00,35.1,31.9,30.19,SSE,162,1.0,1.0,88,0.00,,,0.00,0,Wunderground v.1.15,2013-03-30 07:50:00,
2013-03-30 02:55:00,35.1,32.2,30.19,SSE,162,0.0,1.0,89,0.00,,,0.00,0,Wunderground v.1.15,2013-03-30 07:55:00,
2013-03-30 03:00:00,35.3,32.4,30.19,SSE,161,0.0,0.0,89,0.00,,,0.00,0,Wunderground v.1.15,2013-03-30 08:00:00,
2013-03-30 03:05:00,35.6,32.7,30.19,SSE,162,0.0,0.0,89,0.00,,,0.00,0,Wunderground v.1.15,2013-03-30 08:05:00,
2013-03-30 03:10:00,35.9,33.3,30.19,SSE,162,0.0,0.0,90,0.00,,,0.00,0,Wunderground v.1.15,2013-03-30 08:10:00,
2013-03-30 03:15:00,36.1,33.2,30.19,SSE,162,0.0,1.0,89,0.00,,,0.00,0,Wunderground v.1.15,2013-03-30 08:15:00,
2013-03-30 03:20:00,36.4,33.5,30.18,SSE,162,0.0,1.0,89,0.00,,,0.00,0,Wunderground v.1.15,2013-03-30 08:20:00,
2013-03-30 03:25:00,36.6,33.7,30.18,SSE,161,1.0,1.0,89,0.00,,,0.00,0,Wunderground v.1.15,2013-03-30 08:25:00,
2013-03-30 03:30:00,36.5,33.3,30.18,SSE,162,0.0,0.0,88,0.00,,,0.00,0,Wunderground v.1.15,2013-03-30 08:30:00,
2013-03-30 03:35:00,36.5,33.3,30.19,SSE,162,0.0,1.0,88,0.00,,,0.00,0,Wunderground v.1.15,2013-03-30 08:35:00,
2013-03-30 03:45:00,36.5,33.3,30.19,SSE,162,1.0,2.0,88,0.00,,,0.00,0,Wunderground v.1.15,2013-03-30 08:45:00,
2013-03-30 03:50:00,36.6,33.4,30.18,SSE,162,2.0,2.0,88,0.00,,,0.00,0,Wunderground v.1.15,2013-03-30 08:50:00,
2013-03-30 03:55:00,36.7,33.5,30.19,SSE,162,1.0,2.0,88,0.00,,,0.00,0,Wunderground v.1.15,2013-03-30 08:55:00,
2013-03-30 04:00:00,36.9,33.7,30.19,SSE,162,1.0,1.0,88,0.00,,,0.00,0,Wunderground v.1.15,2013-03-30 09:00:00,
2013-03-30 04:05:00,37.3,34.4,30.19,SSE,162,1.0,1.0,89,0.00,,,0.00,0,Wunderground v.1.15,2013-03-30 09:05:00,
2013-03-30 04:15:00,38.5,35.3,30.19,SSE,162,2.0,5.0,88,0.00,,,0.00,0,Wunderground v.1.15,2013-03-30 09:15:00,
2013-03-30 04:20:00,39.1,35.3,30.19,SSE,162,3.0,3.0,86,0.00,,,0.00,0,Wunderground v.1.15,2013-03-30 09:20:00,
2013-03-30 04:25:00,39.1,34.7,30.18,SSE,162,3.0,4.0,84,0.00,,,0.00,0,Wunderground v.1.15,2013-03-30 09:25:00,
2013-03-30 04:30:00,39.1,34.4,30.18,SSE,161,4.0,4.0,83,0.00,,,0.00,0,Wunderground v.1.15,2013-03-30 09:30:00,
2013-03-30 04:35:00,38.7,33.7,30.17,SSE,161,4.0,4.0,82,0.00,,,0.00,0,Wunderground v.1.15,2013-03-30 09:35:00,
2013-03-30 04:40:00,38.0,32.7,30.17,SSE,161,4.0,5.0,81,0.00,,,0.00,0,Wunderground v.1.15,2013-03-30 09:40:00,
2013-03-30 04:50:00,37.2,33.1,30.17,SSE,161,4.0,4.0,85,0.00,,,0.00,0,Wunderground v.1.15,2013-03-30 09:50:00,
2013-03-30 04:55:00,37.0,32.9,30.16,SSE,161,2.0,4.0,85,0.00,,,0.00,0,Wunderground v.1.15,2013-03-30 09:55:00,
2013-03-30 05:00:00,36.9,33.1,30.16,SSE,161,2.0,4.0,86,0.00,,,0.00,0,Wunderground v.1.15,2013-03-30 10:00:00,
2013-03-30 05:05:00,36.8,33.3,30.16,SSE,161,3.0,4.0,87,0.00,,,0.00,0,Wunderground v.1.15,2013-03-30 10:05:00,
2013-03-30 05:10:00,36.8,33.3,30.16,SSE,161,4.0,4.0,87,0.00,,,0.00,0,Wunderground v.1.15,2013-03-30 10:10:00,
2013-03-30 05:15:00,36.8,33.3,30.16,SSE,161,4.0,5.0,87,0.00,,,0.00,0,Wunderground v.1.15,2013-03-30 10:15:00,
2013-03-30 05:20:00,36.8,33.3,30.16,SSE,161,5.0,5.0,87,0.00,,,0.00,0,Wunderground v.1.15,2013-03-30 10:20:00,
2013-03-30 05:25:00,36.8,33.3,30.16,SSE,161,5.0,5.0,87,0.00,,,0.00,0,Wunderground v.1.15,2013-03-30 10:25:00,
2013-03-30 05:30:00,36.8,33.3,30.16,SSE,161,5.0,5.0,87,0.00,,,0.00,0,Wunderground v.1.15,2013-03-30 10:30:00,
2013-03-30 05:35:00,36.7,33.2,30.16,SSE,161,4.0,5.0,87,0.00,,,0.00,0,Wunderground v.1.15,2013-03-30 10:35:00,
2013-03-30 05:40:00,36.6,33.1,30.15,SSE,161,4.0,4.0,87,0.00,,,0.00,0,Wunderground v.1.15,2013-03-30 10:40:00,
2013-03-30 05:45:00,36.6,33.1,30.15,SSE,161,5.0,5.0,87,0.00,,,0.00,0,Wunderground v.1.15,2013-03-30 10:45:00,
2013-03-30 05:55:00,36.6,33.1,30.15,SSE,161,4.0,4.0,87,0.00,,,0.00,0,Wunderground v.1.15,2013-03-30 10:55:00,
2013-03-30 06:00:00,36.6,33.1,30.15,SSE,161,4.0,4.0,87,0.00,,,0.00,0,Wunderground v.1.15,2013-03-30 11:00:00,
2013-03-30 06:05:00,36.5,33.0,30.15,SSE,161,4.0,4.0,87,0.00,,,0.00,0,Wunderground v.1.15,2013-03-30 11:05:00,
2013-03-30 06:10:00,36.5,33.0,30.15,SSE,161,4.0,4.0,87,0.00,,,0.00,0,Wunderground v.1.15,2013-03-30 11:10:00,
2013-03-30 06:15:00,36.4,32.9,30.15,SSE,161,3.0,4.0,87,0.00,,,0.00,0,Wunderground v.1.15,2013-03-30 11:15:00,
2013-03-30 06:25:00,36.2,32.7,30.14,SSE,161,3.0,3.0,87,0.00,,,0.00,0,Wunderground v.1.15,2013-03-30 11:25:00,
2013-03-30 06:30:00,36.3,32.8,30.14,SSE,161,4.0,4.0,87,0.00,,,0.00,0,Wunderground v.1.15,2013-03-30 11:30:00,
2013-03-30 06:35:00,36.5,33.3,30.14,SSE,161,4.0,4.0,88,0.00,,,0.00,0,Wunderground v.1.15,2013-03-30 11:35:00,
2013-03-30 06:40:00,36.5,33.0,30.14,SSE,161,3.0,3.0,87,0.00,,,0.00,0,Wunderground v.1.15,2013-03-30 11:40:00,
2013-03-30 06:45:00,36.5,33.0,30.14,SSE,161,4.0,5.0,87,0.00,,,0.00,0,Wunderground v.1.15,2013-03-30 11:45:00,
2013-03-30 06:50:00,36.5,33.0,30.13,SSE,161,4.0,5.0,87,0.00,,,0.00,5,Wunderground v.1.15,2013-03-30 11:50:00,
2013-03-30 07:00:00,36.7,33.2,30.12,SSE,159,4.0,6.0,87,0.00,,,0.00,12,Wunderground v.1.15,2013-03-30 12:00:00,
2013-03-30 07:09:00,37.1,33.6,30.13,SSE,157,4.0,4.0,87,0.00,,,0.00,25,Wunderground v.1.15,2013-03-30 12:09:00,
2013-03-30 07:14:00,37.3,33.8,30.13,SSE,157,4.0,4.0,87,0.00,,,0.00,32,Wunderground v.1.15,2013-03-30 12:14:00,
2013-03-30 07:20:00,37.4,33.6,30.13,SSE,157,3.0,3.0,86,0.00,,,0.00,42,Wunderground v.1.15,2013-03-30 12:20:00,
2013-03-30 07:25:00,37.4,33.6,30.14,SSE,157,3.0,3.0,86,0.00,,,0.00,54,Wunderground v.1.15,2013-03-30 12:25:00,
2013-03-30 07:30:00,37.5,34.0,30.14,SSE,157,3.0,3.0,87,0.00,,,0.00,70,Wunderground v.1.15,2013-03-30 12:30:00,
2013-03-30 07:35:00,37.7,34.2,30.13,SSE,157,3.0,3.0,87,0.00,,,0.00,88,Wunderground v.1.15,2013-03-30 12:35:00,
2013-03-30 07:40:00,37.9,34.4,30.13,SSE,157,2.0,2.0,87,0.00,,,0.00,109,Wunderground v.1.15,2013-03-30 12:40:00,
2013-03-30 07:45:00,38.2,34.7,30.13,SSE,157,2.0,2.0,87,0.00,,,0.00,128,Wunderground v.1.15,2013-03-30 12:45:00,
2013-03-30 07:50:00,38.6,35.4,30.13,SSE,157,2.0,3.0,88,0.00,,,0.00,149,Wunderground v.1.15,2013-03-30 12:50:00,
2013-03-30 07:55:00,39.1,36.1,30.13,SSE,157,3.0,3.0,89,0.00,,,0.00,165,Wunderground v.1.15,2013-03-30 12:55:00,
2013-03-30 08:00:00,39.7,36.7,30.13,SSE,157,3.0,3.0,89,0.00,,,0.00,174,Wunderground v.1.15,2013-03-30 13:00:00,
2013-03-30 08:10:00,41.0,38.0,30.13,SSE,157,2.0,5.0,89,0.00,,,0.00,213,Wunderground v.1.15,2013-03-30 13:10:00,
2013-03-30 08:15:00,41.8,39.1,30.12,SSE,155,5.0,6.0,90,0.00,,,0.00,225,Wunderground v.1.15,2013-03-30 13:15:00,
2013-03-30 08:20:00,42.5,39.5,30.12,SE,146,7.0,10.0,89,0.00,,,0.00,214,Wunderground v.1.15,2013-03-30 13:20:00,
2013-03-30 08:25:00,43.0,39.7,30.12,SE,145,8.0,10.0,88,0.00,,,0.00,202,Wunderground v.1.15,2013-03-30 13:25:00,
2013-03-30 08:30:00,43.4,40.1,30.12,SE,145,8.0,10.0,88,0.00,,,0.00,195,Wunderground v.1.15,2013-03-30 13:30:00,
2013-03-30 08:40:00,44.1,40.8,30.12,SSE,152,7.0,7.0,88,0.00,,,0.00,246,Wunderground v.1.15,2013-03-30 13:40:00,
2013-03-30 08:45:00,44.5,41.2,30.12,SSE,153,7.0,9.0,88,0.00,,,0.00,255,Wunderground v.1.15,2013-03-30 13:45:00,
2013-03-30 08:50:00,45.0,41.7,30.11,SSE,151,7.0,7.0,88,0.00,,,0.00,279,Wunderground v.1.15,2013-03-30 13:50:00,
2013-03-30 08:55:00,45.4,42.1,30.11,SSE,165,6.0,7.0,88,0.00,,,0.00,269,Wunderground v.1.15,2013-03-30 13:55:00,
2013-03-30 09:00:00,45.9,42.5,30.11,SSE,159,7.0,7.0,88,0.00,,,0.00,276,Wunderground v.1.15,2013-03-30 14:00:00,
2013-03-30 09:05:00,46.4,43.0,30.11,SSE,168,7.0,7.0,88,0.00,,,0.00,308,Wunderground v.1.15,2013-03-30 14:05:00,
2013-03-30 09:10:00,46.9,43.5,30.11,South,169,7.0,7.0,88,0.00,,,0.00,294,Wunderground v.1.15,2013-03-30 14:10:00,
2013-03-30 09:15:00,47.3,43.6,30.11,SSE,155,8.0,8.0,87,0.00,,,0.00,336,Wunderground v.1.15,2013-03-30 14:15:00,
2013-03-30 09:20:00,47.8,44.4,30.12,SSE,164,7.0,7.0,88,0.00,,,0.00,355,Wunderground v.1.15,2013-03-30 14:20:00,
2013-03-30 09:25:00,48.4,45.0,30.12,South,180,6.0,7.0,88,0.00,,,0.00,417,Wunderground v.1.15,2013-03-30 14:25:00,
2013-03-30 09:30:00,49.0,45.0,30.12,SSE,158,7.0,12.0,86,0.00,,,0.00,432,Wunderground v.1.15,2013-03-30 14:30:00,
2013-03-30 09:35:00,49.5,45.5,30.12,South,177,8.0,12.0,86,0.00,,,0.00,392,Wunderground v.1.15,2013-03-30 14:35:00,
2013-03-30 09:45:00,49.9,45.3,30.11,SSE,159,10.0,16.0,84,0.00,,,0.00,353,Wunderground v.1.15,2013-03-30 14:45:00,
2013-03-30 09:50:00,50.0,45.0,30.10,SSE,165,12.0,16.0,83,0.00,,,0.00,457,Wunderground v.1.15,2013-03-30 14:50:00,
2013-03-30 09:55:00,50.3,45.3,30.10,SSE,152,12.0,16.0,83,0.00,,,0.00,508,Wunderground v.1.15,2013-03-30 14:55:00,
2013-03-30 10:00:00,50.8,45.5,30.09,SSE,157,12.0,13.0,82,0.00,,,0.00,534,Wunderground v.1.15,2013-03-30 15:00:00,
2013-03-30 10:05:00,51.1,45.5,30.09,South,173,13.0,13.0,81,0.00,,,0.00,483,Wunderground v.1.15,2013-03-30 15:05:00,
2013-03-30 10:15:00,51.5,45.2,30.09,SSE,157,12.0,13.0,79,0.00,,,0.00,432,Wunderground v.1.15,2013-03-30 15:15:00,
2013-03-30 10:20:00,51.7,45.4,30.09,SSE,155,11.0,14.0,79,0.00,,,0.00,309,Wunderground v.1.15,2013-03-30 15:20:00,
2013-03-30 10:25:00,51.6,45.3,30.08,SSE,167,12.0,15.0,79,0.00,,,0.00,243,Wunderground v.1.15,2013-03-30 15:25:00,
2013-03-30 10:30:00,51.3,44.3,30.08,SSE,148,13.0,13.0,77,0.00,,,0.00,209,Wunderground v.1.15,2013-03-30 15:30:00,
2013-03-30 10:35:00,51.0,44.4,30.08,SSE,156,14.0,14.0,78,0.00,,,0.00,211,Wunderground v.1.15,2013-03-30 15:35:00,
2013-03-30 10:40:00,51.0,44.4,30.08,SSE,166,13.0,13.0,78,0.00,,,0.00,213,Wunderground v.1.15,2013-03-30 15:40:00,
2013-03-30 10:50:00,51.1,44.1,30.08,SSE,166,11.0,11.0,77,0.00,,,0.00,209,Wunderground v.1.15,2013-03-30 15:50:00,
2013-03-30 10:55:00,51.1,44.1,30.09,South,171,10.0,13.0,77,0.00,,,0.00,213,Wunderground v.1.15,2013-03-30 15:55:00,
2013-03-30 11:00:00,51.2,44.9,30.08,South,175,9.0,9.0,79,0.00,,,0.00,214,Wunderground v.1.15,2013-03-30 16:00:00,
2013-03-30 11:05:00,51.2,44.2,30.08,SSE,166,9.0,12.0,77,0.00,,,0.00,225,Wunderground v.1.15,2013-03-30 16:05:00,
2013-03-30 11:10:00,51.2,44.2,30.08,SSE,161,10.0,11.0,77,0.00,,,0.00,251,Wunderground v.1.15,2013-03-30 16:10:00,
2013-03-30 11:20:00,51.4,44.1,30.08,SSE,156,11.0,11.0,76,0.00,,,0.00,283,Wunderground v.1.15,2013-03-30 16:20:00,
2013-03-30 11:25:00,51.5,44.5,30.08,SSE,159,11.0,11.0,77,0.00,,,0.00,297,Wunderground v.1.15,2013-03-30 16:25:00,
2013-03-30 11:30:00,51.5,44.2,30.07,SSE,168,12.0,14.0,76,0.00,,,0.00,339,Wunderground v.1.15,2013-03-30 16:30:00,
2013-03-30 11:35:00,51.8,44.1,30.07,SSE,163,13.0,14.0,75,0.00,,,0.00,383,Wunderground v.1.15,2013-03-30 16:35:00,
2013-03-30 11:40:00,52.0,44.0,30.06,SSE,154,14.0,14.0,74,0.00,,,0.00,418,Wunderground v.1.15,2013-03-30 16:40:00,
2013-03-30 11:45:00,52.3,44.3,30.06,SSE,154,15.0,15.0,74,0.00,,,0.00,392,Wunderground v.1.15,2013-03-30 16:45:00,
2013-03-30 11:55:00,52.3,43.5,30.06,SSE,155,13.0,16.0,72,0.00,,,0.00,362,Wunderground v.1.15,2013-03-30 16:55:00,
2013-03-30 12:00:00,52.4,44.0,30.05,SSE,156,14.0,14.0,73,0.00,,,0.00,346,Wunderground v.1.15,2013-03-30 17:00:00,
2013-03-30 12:05:00,52.4,44.0,30.05,South,175,14.0,14.0,73,0.00,,,0.00,364,Wunderground v.1.15,2013-03-30 17:05:00,
2013-03-30 12:10:00,52.4,44.0,30.05,SSE,157,15.0,18.0,73,0.00,,,0.00,385,Wunderground v.1.15,2013-03-30 17:10:00,
2013-03-30 12:15:00,52.5,44.1,30.04,SSE,150,14.0,18.0,73,0.00,,,0.00,396,Wunderground v.1.15,2013-03-30 17:15:00,
2013-03-30 12:25:00,53.0,44.9,30.03,SSE,159,14.0,17.0,74,0.00,,,0.00,422,Wunderground v.1.15,2013-03-30 17:25:00,
2013-03-30 12:30:00,53.1,44.3,30.02,SSE,164,14.0,21.0,72,0.00,,,0.00,396,Wunderground v.1.15,2013-03-30 17:30:00,
2013-03-30 12:35:00,52.9,44.1,30.02,SSE,163,16.0,21.0,72,0.00,,,0.00,376,Wunderground v.1.15,2013-03-30 17:35:00,
2013-03-30 12:40:00,52.9,44.1,30.02,SSE,156,17.0,20.0,72,0.00,,,0.00,371,Wunderground v.1.15,2013-03-30 17:40:00,
2013-03-30 12:45:00,52.9,43.4,30.01,SSE,154,17.0,22.0,70,0.00,,,0.00,381,Wunderground v.1.15,2013-03-30 17:45:00,
2013-03-30 12:50:00,52.9,43.0,30.01,South,175,17.0,20.0,69,0.00,,,0.00,397,Wunderground v.1.15,2013-03-30 17:50:00,
2013-03-30 13:00:00,52.8,42.5,30.01,SSE,163,17.0,17.0,68,0.00,,,0.00,475,Wunderground v.1.15,2013-03-30 18:00:00,
2013-03-30 13:10:00,53.2,42.9,30.01,South,181,18.0,18.0,68,0.00,,,0.00,591,Wunderground v.1.15,2013-03-30 18:10:00,
2013-03-30 13:15:00,53.5,43.6,30.00,SSE,157,17.0,18.0,69,0.00,,,0.00,552,Wunderground v.1.15,2013-03-30 18:15:00,
2013-03-30 13:20:00,53.6,43.7,30.01,South,175,17.0,17.0,69,0.00,,,0.00,527,Wunderground v.1.15,2013-03-30 18:20:00,
2013-03-30 13:25:00,53.7,43.8,30.01,SSE,165,15.0,17.0,69,0.00,,,0.00,443,Wunderground v.1.15,2013-03-30 18:25:00,
2013-03-30 13:30:00,53.7,43.8,30.01,South,180,14.0,17.0,69,0.00,,,0.00,482,Wunderground v.1.15,2013-03-30 18:30:00,
2013-03-30 13:35:00,53.8,43.5,30.00,SSE,166,14.0,17.0,68,0.00,,,0.00,483,Wunderground v.1.15,2013-03-30 18:35:00,
2013-03-30 13:40:00,53.9,43.2,30.01,SSE,154,14.0,14.0,67,0.00,,,0.00,476,Wunderground v.1.15,2013-03-30 18:40:00,
2013-03-30 13:45:00,54.0,42.9,30.00,SSW,192,15.0,22.0,66,0.00,,,0.00,506,Wunderground v.1.15,2013-03-30 18:45:00,
2013-03-30 13:50:00,54.3,43.6,30.00,South,181,14.0,15.0,67,0.00,,,0.00,515,Wunderground v.1.15,2013-03-30 18:50:00,
2013-03-30 13:55:00,54.5,43.4,30.00,South,169,14.0,15.0,66,0.00,,,0.00,513,Wunderground v.1.15,2013-03-30 18:55:00,
2013-03-30 14:05:00,55.0,43.4,30.00,South,174,13.0,15.0,65,0.00,,,0.00,471,Wunderground v.1.15,2013-03-30 19:05:00,
2013-03-30 14:10:00,55.0,43.0,30.00,South,181,13.0,13.0,64,0.00,,,0.00,468,Wunderground v.1.15,2013-03-30 19:10:00,
2013-03-30 14:15:00,55.1,43.5,30.00,South,180,13.0,13.0,65,0.00,,,0.00,436,Wunderground v.1.15,2013-03-30 19:15:00,
2013-03-30 14:20:00,55.1,44.3,30.00,South,188,12.0,13.0,67,0.00,,,0.00,448,Wunderground v.1.15,2013-03-30 19:20:00,
2013-03-30 14:25:00,55.3,45.7,29.99,South,181,12.0,13.0,70,0.00,,,0.00,464,Wunderground v.1.15,2013-03-30 19:25:00,
2013-03-30 14:30:00,55.4,44.2,29.99,South,180,12.0,15.0,66,0.00,,,0.00,469,Wunderground v.1.15,2013-03-30 19:30:00,
2013-03-30 14:35:00,55.4,44.6,29.99,South,182,13.0,16.0,67,0.00,,,0.00,480,Wunderground v.1.15,2013-03-30 19:35:00,
2013-03-30 14:40:00,55.5,44.7,29.99,South,188,15.0,15.0,67,0.00,,,0.00,452,Wunderground v.1.15,2013-03-30 19:40:00,
2013-03-30 14:45:00,55.5,45.1,29.99,SSW,204,14.0,15.0,68,0.00,,,0.00,401,Wunderground v.1.15,2013-03-30 19:45:00,
2013-03-30 14:50:00,55.4,43.8,29.99,South,184,14.0,14.0,65,0.00,,,0.00,371,Wunderground v.1.15,2013-03-30 19:50:00,
2013-03-30 14:55:00,55.3,43.7,30.00,SSW,203,15.0,17.0,65,0.00,,,0.00,364,Wunderground v.1.15,2013-03-30 19:55:00,
2013-03-30 15:00:00,55.2,43.6,29.99,SSW,201,15.0,19.0,65,0.00,,,0.00,411,Wunderground v.1.15,2013-03-30 20:00:00,
2013-03-30 15:10:00,55.3,44.5,29.99,SSW,210,15.0,15.0,67,0.00,,,0.00,381,Wunderground v.1.15,2013-03-30 20:10:00,
2013-03-30 15:15:00,55.3,44.9,29.99,SSW,211,14.0,16.0,68,0.00,,,0.00,346,Wunderground v.1.15,2013-03-30 20:15:00,
2013-03-30 15:20:00,55.3,44.1,29.99,SSW,213,14.0,14.0,66,0.00,,,0.00,313,Wunderground v.1.15,2013-03-30 20:20:00,
2013-03-30 15:25:00,55.1,44.7,29.99,SSW,202,14.0,14.0,68,0.00,,,0.00,292,Wunderground v.1.15,2013-03-30 20:25:00,
2013-03-30 15:30:00,55.0,44.6,29.99,SSW,194,13.0,13.0,68,0.00,,,0.00,281,Wunderground v.1.15,2013-03-30 20:30:00,
2013-03-30 15:35:00,54.9,44.5,29.99,SSW,210,12.0,16.0,68,0.00,,,0.00,253,Wunderground v.1.15,2013-03-30 20:35:00,
2013-03-30 15:40:00,54.7,43.2,29.99,SSW,202,14.0,14.0,65,0.00,,,0.00,227,Wunderground v.1.15,2013-03-30 20:40:00,
2013-03-30 15:49:00,54.4,43.3,29.98,SSW,198,13.0,16.0,66,0.00,,,0.00,151,Wunderground v.1.15,2013-03-30 20:49:00,
2013-03-30 15:54:00,54.2,43.5,29.98,SSW,207,13.0,16.0,67,0.00,,,0.00,134,Wunderground v.1.15,2013-03-30 20:54:00,
2013-03-30 16:00:00,54.1,43.4,29.98,SSW,205,12.0,12.0,67,0.00,,,0.00,128,Wunderground v.1.15,2013-03-30 21:00:00,
2013-03-30 16:05:00,53.9,42.8,29.98,SSW,194,11.0,13.0,66,0.00,,,0.00,111,Wunderground v.1.15,2013-03-30 21:05:00,
2013-03-30 16:15:00,53.7,43.4,29.97,SSW,207,10.0,11.0,68,0.00,,,0.00,109,Wunderground v.1.15,2013-03-30 21:15:00,
2013-03-30 16:20:00,53.6,43.3,29.97,SSW,205,10.0,10.0,68,0.00,,,0.00,120,Wunderground v.1.15,2013-03-30 21:20:00,
2013-03-30 16:25:00,53.5,42.8,29.97,SSW,208,11.0,12.0,67,0.00,,,0.00,116,Wunderground v.1.15,2013-03-30 21:25:00,
2013-03-30 16:30:00,53.5,43.6,29.96,SSW,209,11.0,11.0,69,0.00,,,0.00,98,Wunderground v.1.15,2013-03-30 21:30:00,
2013-03-30 16:35:00,53.4,43.1,29.96,SSW,204,10.0,11.0,68,0.00,,,0.00,102,Wunderground v.1.15,2013-03-30 21:35:00,
2013-03-30 16:40:00,53.3,43.8,29.95,South,190,8.0,8.0,70,0.00,,,0.00,93,Wunderground v.1.15,2013-03-30 21:40:00,
2013-03-30 16:45:00,53.3,43.0,29.95,South,182,6.0,8.0,68,0.00,,,0.00,86,Wunderground v.1.15,2013-03-30 21:45:00,
2013-03-30 16:50:00,53.3,43.0,29.95,South,178,5.0,5.0,68,0.00,,,0.00,81,Wunderground v.1.15,2013-03-30 21:50:00,
2013-03-30 16:55:00,53.2,43.3,29.94,South,179,4.0,6.0,69,0.00,,,0.00,70,Wunderground v.1.15,2013-03-30 21:55:00,
2013-03-30 17:00:00,53.2,43.7,29.94,South,178,5.0,5.0,70,0.00,,,0.00,65,Wunderground v.1.15,2013-03-30 22:00:00,
2013-03-30 17:10:00,53.1,43.2,29.93,SSE,160,5.0,5.0,69,0.00,,,0.00,62,Wunderground v.1.15,2013-03-30 22:10:00,
2013-03-30 17:15:00,53.1,42.8,29.93,SSE,159,6.0,7.0,68,0.00,,,0.00,62,Wunderground v.1.15,2013-03-30 22:15:00,
2013-03-30 17:20:00,53.0,43.1,29.93,SSE,163,6.0,6.0,69,0.00,,,0.00,62,Wunderground v.1.15,2013-03-30 22:20:00,
2013-03-30 17:25:00,53.0,42.7,29.92,SSE,161,5.0,6.0,68,0.00,,,0.00,81,Wunderground v.1.15,2013-03-30 22:25:00,
2013-03-30 17:34:00,53.0,43.1,29.92,SSE,159,5.0,6.0,69,0.00,,,0.00,56,Wunderground v.1.15,2013-03-30 22:34:00,
2013-03-30 17:39:00,52.9,43.4,29.92,SSE,157,5.0,7.0,70,0.00,,,0.00,44,Wunderground v.1.15,2013-03-30 22:39:00,
2013-03-30 17:44:00,52.8,43.3,29.92,SSE,153,6.0,7.0,70,0.00,,,0.00,37,Wunderground v.1.15,2013-03-30 22:44:00,
2013-03-30 17:50:00,52.6,43.1,29.92,SSE,153,6.0,6.0,70,0.00,,,0.00,28,Wunderground v.1.15,2013-03-30 22:50:00,
2013-03-30 17:55:00,52.5,43.0,29.92,SSE,153,4.0,6.0,70,0.00,,,0.00,23,Wunderground v.1.15,2013-03-30 22:55:00,
2013-03-30 18:00:00,52.4,43.3,29.92,SSE,153,3.0,3.0,71,0.00,,,0.00,21,Wunderground v.1.15,2013-03-30 23:00:00,
2013-03-30 18:10:00,52.2,43.8,29.92,SSE,153,3.0,3.0,73,0.00,,,0.00,18,Wunderground v.1.15,2013-03-30 23:10:00,
2013-03-30 18:15:00,52.0,44.0,29.92,SSE,153,4.0,4.0,74,0.00,,,0.00,18,Wunderground v.1.15,2013-03-30 23:15:00,
2013-03-30 18:20:00,51.8,43.4,29.92,South,185,4.0,6.0,73,0.00,,,0.00,18,Wunderground v.1.15,2013-03-30 23:20:00,
2013-03-30 18:30:00,51.5,42.8,29.92,SSW,194,7.0,10.0,72,0.00,,,0.00,16,Wunderground v.1.15,2013-03-30 23:30:00,
2013-03-30 18:35:00,51.5,42.8,29.92,SSW,196,8.0,10.0,72,0.00,,,0.00,14,Wunderground v.1.15,2013-03-30 23:35:00,
2013-03-30 18:40:00,51.4,43.0,29.92,SSW,194,7.0,7.0,73,0.00,,,0.00,14,Wunderground v.1.15,2013-03-30 23:40:00,
2013-03-30 18:45:00,51.2,42.8,29.92,South,189,6.0,7.0,73,0.00,,,0.00,16,Wunderground v.1.15,2013-03-30 23:45:00,
2013-03-30 18:50:00,51.1,43.1,29.92,South,189,6.0,6.0,74,0.00,,,0.00,26,Wunderground v.1.15,2013-03-30 23:50:00,
2013-03-30 19:00:00,50.8,43.5,29.92,South,189,4.0,6.0,76,0.00,,,0.00,25,Wunderground v.1.15,2013-03-31 00:00:00,
2013-03-30 19:05:00,50.7,43.1,29.92,SSW,193,5.0,6.0,75,0.00,,,0.00,16,Wunderground v.1.15,2013-03-31 00:05:00,
2013-03-30 19:10:00,50.6,43.0,29.92,SSW,194,6.0,9.0,75,0.00,,,0.00,14,Wunderground v.1.15,2013-03-31 00:10:00,
2013-03-30 19:15:00,50.6,43.3,29.92,SSW,195,7.0,9.0,76,0.00,,,0.00,9,Wunderground v.1.15,2013-03-31 00:15:00,
2013-03-30 19:20:00,50.4,43.5,29.91,SSW,195,6.0,6.0,77,0.00,,,0.00,5,Wunderground v.1.15,2013-03-31 00:20:00,
2013-03-30 19:25:00,50.3,43.7,29.92,SSW,194,6.0,7.0,78,0.00,,,0.00,0,Wunderground v.1.15,2013-03-31 00:25:00,
2013-03-30 19:35:00,50.0,43.4,29.91,SSW,195,7.0,7.0,78,0.00,,,0.00,0,Wunderground v.1.15,2013-03-31 00:35:00,
2013-03-30 19:40:00,49.9,43.3,29.92,SSW,195,7.0,7.0,78,0.00,,,0.00,0,Wunderground v.1.15,2013-03-31 00:40:00,
2013-03-30 19:45:00,49.8,43.5,29.91,SSW,196,6.0,8.0,79,0.00,,,0.00,0,Wunderground v.1.15,2013-03-31 00:45:00,
2013-03-30 19:50:00,49.6,43.4,29.91,SSW,196,6.0,6.0,79,0.00,,,0.00,0,Wunderground v.1.15,2013-03-31 00:50:00,
2013-03-30 19:55:00,49.5,43.6,29.91,SSW,196,6.0,6.0,80,0.00,,,0.00,0,Wunderground v.1.15,2013-03-31 00:55:00,
2013-03-30 20:05:00,49.1,43.8,29.91,SSW,196,5.0,6.0,82,0.00,,,0.00,0,Wunderground v.1.15,2013-03-31 01:05:00,
2013-03-30 20:10:00,48.9,44.0,29.91,SSW,196,5.0,5.0,83,0.00,,,0.00,0,Wunderground v.1.15,2013-03-31 01:10:00,
2013-03-30 20:15:00,48.7,44.1,29.91,SSW,196,5.0,5.0,84,0.00,,,0.00,0,Wunderground v.1.15,2013-03-31 01:15:00,
2013-03-30 20:20:00,48.5,43.9,29.91,SSW,196,5.0,5.0,84,0.00,,,0.00,0,Wunderground v.1.15,2013-03-31 01:20:00,
2013-03-30 20:25:00,48.4,44.1,29.91,SSW,196,5.0,5.0,85,0.00,,,0.00,0,Wunderground v.1.15,2013-03-31 01:25:00,
2013-03-30 20:30:00,48.3,44.0,29.91,SSW,196,5.0,5.0,85,0.00,,,0.00,0,Wunderground v.1.15,2013-03-31 01:30:00,
2013-03-30 20:40:00,48.0,44.0,29.91,SSW,196,4.0,6.0,86,0.00,,,0.00,0,Wunderground v.1.15,2013-03-31 01:40:00,
2013-03-30 20:45:00,47.9,43.9,29.91,SSW,196,5.0,9.0,86,0.00,,,0.00,0,Wunderground v.1.15,2013-03-31 01:45:00,
2013-03-30 20:50:00,47.9,43.9,29.91,SSW,200,7.0,7.0,86,0.00,,,0.00,0,Wunderground v.1.15,2013-03-31 01:50:00,
2013-03-30 20:55:00,48.0,43.7,29.91,SSW,207,9.0,9.0,85,0.00,,,0.00,0,Wunderground v.1.15,2013-03-31 01:55:00,
2013-03-30 21:00:00,48.0,43.7,29.92,SSW,209,8.0,8.0,85,0.00,,,0.00,0,Wunderground v.1.15,2013-03-31 02:00:00,
2013-03-30 21:05:00,48.0,43.7,29.92,SSW,209,6.0,8.0,85,0.00,,,0.00,0,Wunderground v.1.15,2013-03-31 02:05:00,
2013-03-30 21:10:00,48.0,44.0,29.92,SSW,209,5.0,5.0,86,0.00,,,0.00,0,Wunderground v.1.15,2013-03-31 02:10:00,
2013-03-30 21:15:00,47.9,43.9,29.92,SSW,209,5.0,5.0,86,0.00,,,0.00,0,Wunderground v.1.15,2013-03-31 02:15:00,
2013-03-30 21:24:00,47.7,43.7,29.92,SSW,209,4.0,5.0,86,0.00,,,0.00,0,Wunderground v.1.15,2013-03-31 02:24:00,
2013-03-30 21:29:00,47.6,43.9,29.92,SSW,209,4.0,4.0,87,0.00,,,0.00,0,Wunderground v.1.15,2013-03-31 02:29:00,
2013-03-30 21:34:00,47.5,43.8,29.92,SSW,209,5.0,7.0,87,0.00,,,0.00,0,Wunderground v.1.15,2013-03-31 02:34:00,
2013-03-30 21:40:00,47.4,43.7,29.92,SSW,209,6.0,6.0,87,0.00,,,0.00,0,Wunderground v.1.15,2013-03-31 02:40:00,
2013-03-30 21:45:00,47.4,44.0,29.92,SSW,211,7.0,12.0,88,0.00,,,0.00,0,Wunderground v.1.15,2013-03-31 02:45:00,
2013-03-30 21:50:00,47.4,44.0,29.92,SSW,211,8.0,10.0,88,0.00,,,0.00,0,Wunderground v.1.15,2013-03-31 02:50:00,
2013-03-30 21:55:00,47.3,44.2,29.92,SSW,213,9.0,10.0,89,0.00,,,0.00,0,Wunderground v.1.15,2013-03-31 02:55:00,
2013-03-30 22:00:00,47.3,44.2,29.92,SW,214,8.0,8.0,89,0.00,,,0.00,0,Wunderground v.1.15,2013-03-31 03:00:00,
2013-03-30 22:10:00,47.2,44.1,29.92,SW,217,8.0,8.0,89,0.00,,,0.00,0,Wunderground v.1.15,2013-03-31 03:10:00,
2013-03-30 22:19:00,47.2,44.1,29.92,SW,218,8.0,8.0,89,0.00,,,0.00,0,Wunderground v.1.15,2013-03-31 03:19:00,
2013-03-30 22:25:00,47.2,44.1,29.92,SW,218,8.0,8.0,89,0.00,,,0.00,0,Wunderground v.1.15,2013-03-31 03:25:00,
2013-03-30 22:30:00,47.2,44.1,29.92,SW,218,7.0,8.0,89,0.00,,,0.00,0,Wunderground v.1.15,2013-03-31 03:30:00,
2013-03-30 22:35:00,47.2,44.1,29.92,SW,219,7.0,8.0,89,0.00,,,0.00,0,Wunderground v.1.15,2013-03-31 03:35:00,
2013-03-30 22:40:00,47.1,44.0,29.92,SW,219,7.0,7.0,89,0.00,,,0.00,0,Wunderground v.1.15,2013-03-31 03:40:00,
2013-03-30 22:45:00,47.0,43.9,29.92,SW,219,7.0,7.0,89,0.00,,,0.00,0,Wunderground v.1.15,2013-03-31 03:45:00,
2013-03-30 22:50:00,47.0,44.2,29.91,SW,218,7.0,7.0,90,0.00,,,0.00,0,Wunderground v.1.15,2013-03-31 03:50:00,
2013-03-30 22:55:00,46.9,44.1,29.91,SW,217,7.0,8.0,90,0.00,,,0.00,0,Wunderground v.1.15,2013-03-31 03:55:00,
2013-03-30 23:00:00,46.8,44.0,29.91,SW,217,7.0,7.0,90,0.00,,,0.00,0,Wunderground v.1.15,2013-03-31 04:00:00,
2013-03-30 23:05:00,46.8,44.0,29.91,SW,217,6.0,7.0,90,0.00,,,0.00,0,Wunderground v.1.15,2013-03-31 04:05:00,
2013-03-30 23:10:00,46.7,44.2,29.91,SW,217,6.0,6.0,91,0.00,,,0.00,0,Wunderground v.1.15,2013-03-31 04:10:00,
2013-03-30 23:15:00,46.6,44.1,29.90,SW,217,6.0,6.0,91,0.00,,,0.00,0,Wunderground v.1.15,2013-03-31 04:15:00,
2013-03-30 23:25:00,46.5,44.0,29.90,SW,218,6.0,6.0,91,0.00,,,0.00,0,Wunderground v.1.15,2013-03-31 04:25:00,
2013-03-30 23:30:00,46.4,44.2,29.90,SW,218,5.0,5.0,92,0.00,,,0.00,0,Wunderground v.1.15,2013-03-31 04:30:00,
2013-03-30 23:35:00,46.4,44.2,29.90,SW,218,5.0,5.0,92,0.00,,,0.00,0,Wunderground v.1.15,2013-03-31 04:35:00,
2013-03-30 23:40:00,46.3,44.1,29.90,SW,218,5.0,5.0,92,0.00,,,0.00,0,Wunderground v.1.15,2013-03-31 04:40:00,
2013-03-30 23:45:00,46.3,44.1,29.90,SW,218,6.0,8.0,92,0.00,,,0.00,0,Wunderground v.1.15,2013-03-31 04:45:00,
2013-03-30 23:50:00,46.2,44.3,29.90,SW,218,6.0,6.0,93,0.00,,,0.00,0,Wunderground v.1.15,2013-03-31 04:50:00,
2013-03-30 23:55:00,46.2,44.3,29.90,SW,218,6.0,6.0,93,0.00,,,0.00,0,Wunderground v.1.15,2013-03-31 04:55:00,